sensor_id;sensor_type;location;lat;lon;timestamp;pressure;altitude;pressure_sealevel;temperature
15544;BMP180;7873;52.230;12.856;2022-08-18T00:02:00;100307.97;;;26.10
15544;BMP180;7873;52.230;12.856;2022-08-18T00:04:30;100306.50;;;26.08
15544;BMP180;7873;52.230;12.856;2022-08-18T00:06:57;100305.06;;;26.05
15544;BMP180;7873;52.230;12.856;2022-08-18T00:09:24;100303.19;;;26.06
15544;BMP180;7873;52.230;12.856;2022-08-18T00:11:50;100303.81;;;26.08
15544;BMP180;7873;52.230;12.856;2022-08-18T00:14:19;100300.47;;;26.06
15544;BMP180;7873;52.230;12.856;2022-08-18T00:16:47;100295.91;;;26.00
15544;BMP180;7873;52.230;12.856;2022-08-18T00:19:14;100288.66;;;26.00
15544;BMP180;7873;52.230;12.856;2022-08-18T00:21:43;100279.72;;;26.00
15544;BMP180;7873;52.230;12.856;2022-08-18T00:24:09;100282.25;;;26.01
15544;BMP180;7873;52.230;12.856;2022-08-18T00:26:36;100289.06;;;25.97
15544;BMP180;7873;52.230;12.856;2022-08-18T00:29:03;100284.06;;;25.94
15544;BMP180;7873;52.230;12.856;2022-08-18T00:31:30;100289.47;;;25.94
15544;BMP180;7873;52.230;12.856;2022-08-18T00:33:57;100289.69;;;25.86
15544;BMP180;7873;52.230;12.856;2022-08-18T00:36:24;100289.22;;;25.83
15544;BMP180;7873;52.230;12.856;2022-08-18T00:38:52;100281.13;;;25.83
15544;BMP180;7873;52.230;12.856;2022-08-18T00:41:20;100288.81;;;25.79
15544;BMP180;7873;52.230;12.856;2022-08-18T00:43:51;100280.50;;;25.81
15544;BMP180;7873;52.230;12.856;2022-08-18T00:46:22;100279.69;;;25.74
15544;BMP180;7873;52.230;12.856;2022-08-18T00:48:50;100283.41;;;25.73
15544;BMP180;7873;52.230;12.856;2022-08-18T00:51:20;100283.19;;;25.68
15544;BMP180;7873;52.230;12.856;2022-08-18T00:53:52;100282.78;;;25.71
15544;BMP180;7873;52.230;12.856;2022-08-18T00:56:25;100281.31;;;25.68
15544;BMP180;7873;52.230;12.856;2022-08-18T00:58:55;100290.25;;;25.62
15544;BMP180;7873;52.230;12.856;2022-08-18T01:01:26;100283.38;;;25.60
15544;BMP180;7873;52.230;12.856;2022-08-18T01:03:59;100284.00;;;25.62
15544;BMP180;7873;52.230;12.856;2022-08-18T01:06:32;100276.31;;;25.59
15544;BMP180;7873;52.230;12.856;2022-08-18T01:09:02;100277.78;;;25.61
15544;BMP180;7873;52.230;12.856;2022-08-18T01:11:29;100279.44;;;25.56
15544;BMP180;7873;52.230;12.856;2022-08-18T01:13:57;100276.53;;;25.51
15544;BMP180;7873;52.230;12.856;2022-08-18T01:16:23;100283.13;;;25.49
15544;BMP180;7873;52.230;12.856;2022-08-18T01:19:08;100281.25;;;25.43
15544;BMP180;7873;52.230;12.856;2022-08-18T01:22:03;100281.69;;;25.40
15544;BMP180;7873;52.230;12.856;2022-08-18T01:24:33;100284.16;;;25.35
15544;BMP180;7873;52.230;12.856;2022-08-18T01:27:19;100282.09;;;25.37
15544;BMP180;7873;52.230;12.856;2022-08-18T01:29:47;100282.09;;;25.37
15544;BMP180;7873;52.230;12.856;2022-08-18T01:32:15;100285.41;;;25.39
15544;BMP180;7873;52.230;12.856;2022-08-18T01:34:44;100270.88;;;25.40
15544;BMP180;7873;52.230;12.856;2022-08-18T01:37:13;100272.56;;;25.41
15544;BMP180;7873;52.230;12.856;2022-08-18T01:39:42;100269.41;;;25.37
15544;BMP180;7873;52.230;12.856;2022-08-18T01:42:11;100269.41;;;25.37
15544;BMP180;7873;52.230;12.856;2022-08-18T01:44:39;100258.63;;;25.37
15544;BMP180;7873;52.230;12.856;2022-08-18T01:47:06;100256.78;;;25.38
15544;BMP180;7873;52.230;12.856;2022-08-18T01:49:35;100258.25;;;25.34
15544;BMP180;7873;52.230;12.856;2022-08-18T01:52:02;100250.34;;;25.32
15544;BMP180;7873;52.230;12.856;2022-08-18T01:54:31;100252.81;;;25.27
15544;BMP180;7873;52.230;12.856;2022-08-18T01:56:59;100246.59;;;25.20
15544;BMP180;7873;52.230;12.856;2022-08-18T01:59:26;100248.47;;;25.26
15544;BMP180;7873;52.230;12.856;2022-08-18T02:01:53;100251.97;;;25.27
15544;BMP180;7873;52.230;12.856;2022-08-18T02:04:24;100248.25;;;25.28
15544;BMP180;7873;52.230;12.856;2022-08-18T02:06:51;100251.75;;;25.22
15544;BMP180;7873;52.230;12.856;2022-08-18T02:09:18;100242.63;;;25.23
15544;BMP180;7873;52.230;12.856;2022-08-18T02:11:45;100250.66;;;25.16
15544;BMP180;7873;52.230;12.856;2022-08-18T02:14:13;100245.28;;;25.16
15544;BMP180;7873;52.230;12.856;2022-08-18T02:16:39;100246.94;;;25.17
15544;BMP180;7873;52.230;12.856;2022-08-18T02:19:06;100250.50;;;25.18
15544;BMP180;7873;52.230;12.856;2022-08-18T02:21:33;100247.34;;;25.14
15544;BMP180;7873;52.230;12.856;2022-08-18T02:24:00;100247.16;;;25.16
15544;BMP180;7873;52.230;12.856;2022-08-18T02:26:26;100256.28;;;25.15
15544;BMP180;7873;52.230;12.856;2022-08-18T02:28:53;100256.28;;;25.15
15544;BMP180;7873;52.230;12.856;2022-08-18T02:31:23;100250.66;;;25.10
15544;BMP180;7873;52.230;12.856;2022-08-18T02:33:51;100254.19;;;25.10
15544;BMP180;7873;52.230;12.856;2022-08-18T02:36:19;100255.63;;;25.06
15544;BMP180;7873;52.230;12.856;2022-08-18T02:38:46;100256.84;;;25.04
15544;BMP180;7873;52.230;12.856;2022-08-18T02:41:12;100247.72;;;24.98
15544;BMP180;7873;52.230;12.856;2022-08-18T02:43:41;100252.06;;;24.99
15544;BMP180;7873;52.230;12.856;2022-08-18T02:46:08;100247.09;;;24.96
15544;BMP180;7873;52.230;12.856;2022-08-18T02:48:37;100242.34;;;24.98
15544;BMP180;7873;52.230;12.856;2022-08-18T02:51:06;100242.72;;;24.89
15544;BMP180;7873;52.230;12.856;2022-08-18T02:53:34;100245.41;;;24.89
15544;BMP180;7873;52.230;12.856;2022-08-18T02:56:07;100244.94;;;24.85
15544;BMP180;7873;52.230;12.856;2022-08-18T02:58:59;100247.03;;;24.83
15544;BMP180;7873;52.230;12.856;2022-08-18T03:01:28;100251.16;;;24.79
15544;BMP180;7873;52.230;12.856;2022-08-18T03:03:58;100250.94;;;24.74
15544;BMP180;7873;52.230;12.856;2022-08-18T03:06:27;100255.63;;;24.66
15544;BMP180;7873;52.230;12.856;2022-08-18T03:08:54;100238.44;;;24.67
15544;BMP180;7873;52.230;12.856;2022-08-18T03:11:22;100244.47;;;24.69
15544;BMP180;7873;52.230;12.856;2022-08-18T03:13:50;100242.59;;;24.69
15544;BMP180;7873;52.230;12.856;2022-08-18T03:16:17;100237.81;;;24.65
15544;BMP180;7873;52.230;12.856;2022-08-18T03:18:46;100240.94;;;24.68
15544;BMP180;7873;52.230;12.856;2022-08-18T03:21:19;100248.38;;;24.66
15544;BMP180;7873;52.230;12.856;2022-08-18T03:23:47;100247.63;;;24.79
15544;BMP180;7873;52.230;12.856;2022-08-18T03:26:16;100247.09;;;24.96
15544;BMP180;7873;52.230;12.856;2022-08-18T03:28:45;100248.38;;;25.07
15544;BMP180;7873;52.230;12.856;2022-08-18T03:31:12;100250.03;;;25.14
15544;BMP180;7873;52.230;12.856;2022-08-18T03:33:43;100249.69;;;25.24
15544;BMP180;7873;52.230;12.856;2022-08-18T03:36:12;100257.78;;;25.24
15544;BMP180;7873;52.230;12.856;2022-08-18T03:38:42;100248.66;;;25.25
15544;BMP180;7873;52.230;12.856;2022-08-18T03:41:11;100251.97;;;25.20
15544;BMP180;7873;52.230;12.856;2022-08-18T03:43:38;100261.50;;;25.23
15544;BMP180;7873;52.230;12.856;2022-08-18T03:46:06;100259.88;;;25.28
15544;BMP180;7873;52.230;12.856;2022-08-18T03:48:34;100258.44;;;25.39
15544;BMP180;7873;52.230;12.856;2022-08-18T03:51:03;100253.50;;;25.42
15544;BMP180;7873;52.230;12.856;2022-08-18T03:53:31;100251.44;;;25.44
15544;BMP180;7873;52.230;12.856;2022-08-18T03:56:00;100254.31;;;25.43
15544;BMP180;7873;52.230;12.856;2022-08-18T03:58:27;100261.13;;;25.32
15544;BMP180;7873;52.230;12.856;2022-08-18T04:00:53;100257.09;;;25.15
15544;BMP180;7873;52.230;12.856;2022-08-18T04:03:20;100262.22;;;25.04
15544;BMP180;7873;52.230;12.856;2022-08-18T04:05:47;100264.91;;;25.04
15544;BMP180;7873;52.230;12.856;2022-08-18T04:08:13;100269.00;;;24.93
15544;BMP180;7873;52.230;12.856;2022-08-18T04:10:42;100264.66;;;24.86
15544;BMP180;7873;52.230;12.856;2022-08-18T04:13:10;100272.91;;;24.84
15544;BMP180;7873;52.230;12.856;2022-08-18T04:15:37;100272.56;;;24.94
15544;BMP180;7873;52.230;12.856;2022-08-18T04:18:04;100273.41;;;25.01
15544;BMP180;7873;52.230;12.856;2022-08-18T04:20:33;100278.38;;;25.04
15544;BMP180;7873;52.230;12.856;2022-08-18T04:23:00;100268.50;;;25.17
15544;BMP180;7873;52.230;12.856;2022-08-18T04:25:27;100283.28;;;25.28
15544;BMP180;7873;52.230;12.856;2022-08-18T04:27:54;100291.41;;;25.34
15544;BMP180;7873;52.230;12.856;2022-08-18T04:30:26;100297.44;;;25.43
15544;BMP180;7873;52.230;12.856;2022-08-18T04:32:53;100286.47;;;25.44
15544;BMP180;7873;52.230;12.856;2022-08-18T04:35:20;100295.16;;;25.40
15544;BMP180;7873;52.230;12.856;2022-08-18T04:37:48;100290.78;;;25.32
15544;BMP180;7873;52.230;12.856;2022-08-18T04:40:14;100293.44;;;25.26
15544;BMP180;7873;52.230;12.856;2022-08-18T04:42:41;100287.97;;;25.13
15544;BMP180;7873;52.230;12.856;2022-08-18T04:45:09;100287.50;;;24.96
15544;BMP180;7873;52.230;12.856;2022-08-18T04:47:38;100292.44;;;24.93
15544;BMP180;7873;52.230;12.856;2022-08-18T04:50:07;100298.59;;;24.80
15544;BMP180;7873;52.230;12.856;2022-08-18T04:52:34;100296.47;;;24.76
15544;BMP180;7873;52.230;12.856;2022-08-18T04:55:23;100300.44;;;24.80
15544;BMP180;7873;52.230;12.856;2022-08-18T04:57:50;100302.72;;;24.76
15544;BMP180;7873;52.230;12.856;2022-08-18T05:00:17;100306.44;;;24.82
15544;BMP180;7873;52.230;12.856;2022-08-18T05:02:45;100304.44;;;24.90
15544;BMP180;7873;52.230;12.856;2022-08-18T05:05:11;100298.66;;;24.93
15544;BMP180;7873;52.230;12.856;2022-08-18T05:07:42;100296.00;;;25.00
15544;BMP180;7873;52.230;12.856;2022-08-18T05:10:10;100302.81;;;24.96
15544;BMP180;7873;52.230;12.856;2022-08-18T05:12:37;100297.03;;;24.99
15544;BMP180;7873;52.230;12.856;2022-08-18T05:15:08;100308.25;;;25.02
15544;BMP180;7873;52.230;12.856;2022-08-18T05:17:36;100301.22;;;25.08
15544;BMP180;7873;52.230;12.856;2022-08-18T05:20:07;100296.03;;;25.06
15544;BMP180;7873;52.230;12.856;2022-08-18T05:22:37;100303.47;;;25.04
15544;BMP180;7873;52.230;12.856;2022-08-18T05:25:06;100307.38;;;25.02
15544;BMP180;7873;52.230;12.856;2022-08-18T05:27:34;100298.69;;;25.00
15544;BMP180;7873;52.230;12.856;2022-08-18T05:30:03;100296.56;;;24.89
15544;BMP180;7873;52.230;12.856;2022-08-18T05:32:32;100302.09;;;24.81
15544;BMP180;7873;52.230;12.856;2022-08-18T05:35:02;100312.69;;;24.82
15544;BMP180;7873;52.230;12.856;2022-08-18T05:37:35;100313.09;;;24.79
15544;BMP180;7873;52.230;12.856;2022-08-18T05:40:06;100325.94;;;24.77
15544;BMP180;7873;52.230;12.856;2022-08-18T05:42:35;100325.06;;;24.77
15544;BMP180;7873;52.230;12.856;2022-08-18T05:45:08;100329.44;;;24.78
15544;BMP180;7873;52.230;12.856;2022-08-18T05:47:36;100326.25;;;24.95
15544;BMP180;7873;52.230;12.856;2022-08-18T05:50:07;100329.56;;;25.04
15544;BMP180;7873;52.230;12.856;2022-08-18T05:52:39;100327.38;;;25.14
15544;BMP180;7873;52.230;12.856;2022-08-18T05:55:10;100323.19;;;25.11
15544;BMP180;7873;52.230;12.856;2022-08-18T05:58:00;100325.78;;;25.19
15544;BMP180;7873;52.230;12.856;2022-08-18T06:00:29;100328.69;;;25.24
15544;BMP180;7873;52.230;12.856;2022-08-18T06:02:59;100329.94;;;25.28
15544;BMP180;7873;52.230;12.856;2022-08-18T06:05:32;100337.63;;;25.31
15544;BMP180;7873;52.230;12.856;2022-08-18T06:08:04;100326.66;;;25.33
15544;BMP180;7873;52.230;12.856;2022-08-18T06:10:34;100333.69;;;25.34
15544;BMP180;7873;52.230;12.856;2022-08-18T06:13:02;100327.47;;;25.33
15544;BMP180;7873;52.230;12.856;2022-08-18T06:15:36;100325.41;;;25.35
15544;BMP180;7873;52.230;12.856;2022-08-18T06:18:15;100324.59;;;25.35
15544;BMP180;7873;52.230;12.856;2022-08-18T06:21:00;100328.31;;;25.34
15544;BMP180;7873;52.230;12.856;2022-08-18T06:23:37;100331.19;;;25.32
15544;BMP180;7873;52.230;12.856;2022-08-18T06:26:12;100331.00;;;25.34
15544;BMP180;7873;52.230;12.856;2022-08-18T06:28:50;100338.06;;;25.35
15544;BMP180;7873;52.230;12.856;2022-08-18T06:31:24;100336.59;;;25.32
15544;BMP180;7873;52.230;12.856;2022-08-18T06:34:02;100345.94;;;25.30
15544;BMP180;7873;52.230;12.856;2022-08-18T06:36:38;100339.91;;;25.34
15544;BMP180;7873;52.230;12.856;2022-08-18T06:39:23;100345.94;;;25.36
15544;BMP180;7873;52.230;12.856;2022-08-18T06:41:52;100353.59;;;25.39
15544;BMP180;7873;52.230;12.856;2022-08-18T06:44:22;100345.53;;;25.39
15544;BMP180;7873;52.230;12.856;2022-08-18T06:46:55;100349.88;;;25.40
15544;BMP180;7873;52.230;12.856;2022-08-18T06:49:36;100352.38;;;25.42
15544;BMP180;7873;52.230;12.856;2022-08-18T06:52:21;100359.44;;;25.43
15544;BMP180;7873;52.230;12.856;2022-08-18T06:54:50;100347.84;;;25.42
15544;BMP180;7873;52.230;12.856;2022-08-18T06:57:29;100339.75;;;25.42
15544;BMP180;7873;52.230;12.856;2022-08-18T06:59:58;100345.16;;;25.42
15544;BMP180;7873;52.230;12.856;2022-08-18T07:02:38;100347.00;;;25.42
15544;BMP180;7873;52.230;12.856;2022-08-18T07:05:07;100345.97;;;25.43
15544;BMP180;7873;52.230;12.856;2022-08-18T07:07:44;100346.81;;;25.43
15544;BMP180;7873;52.230;12.856;2022-08-18T07:10:31;100353.84;;;25.44
15544;BMP180;7873;52.230;12.856;2022-08-18T07:13:14;100358.22;;;25.45
15544;BMP180;7873;52.230;12.856;2022-08-18T07:15:41;100360.91;;;25.45
15544;BMP180;7873;52.230;12.856;2022-08-18T07:18:11;100364.44;;;25.46
15544;BMP180;7873;52.230;12.856;2022-08-18T07:20:44;100366.09;;;25.47
15544;BMP180;7873;52.230;12.856;2022-08-18T07:23:22;100363.38;;;25.47
15544;BMP180;7873;52.230;12.856;2022-08-18T07:25:58;100364.25;;;25.47
15544;BMP180;7873;52.230;12.856;2022-08-18T07:28:29;100365.28;;;25.46
15544;BMP180;7873;52.230;12.856;2022-08-18T07:31:12;100367.56;;;25.49
15544;BMP180;7873;52.230;12.856;2022-08-18T07:33:40;100364.88;;;25.49
15544;BMP180;7873;52.230;12.856;2022-08-18T07:36:09;100362.16;;;25.49
15544;BMP180;7873;52.230;12.856;2022-08-18T07:38:41;100363.84;;;25.50
15544;BMP180;7873;52.230;12.856;2022-08-18T07:41:15;100363.84;;;25.50
15544;BMP180;7873;52.230;12.856;2022-08-18T07:43:52;100360.09;;;25.51
15544;BMP180;7873;52.230;12.856;2022-08-18T07:46:25;100362.59;;;25.53
15544;BMP180;7873;52.230;12.856;2022-08-18T07:48:56;100362.78;;;25.51
15544;BMP180;7873;52.230;12.856;2022-08-18T07:51:28;100361.13;;;25.50
15544;BMP180;7873;52.230;12.856;2022-08-18T07:54:00;100369.22;;;25.50
15544;BMP180;7873;52.230;12.856;2022-08-18T07:56:36;100380.81;;;25.51
15544;BMP180;7873;52.230;12.856;2022-08-18T07:59:11;100382.47;;;25.52
15544;BMP180;7873;52.230;12.856;2022-08-18T08:01:45;100384.38;;;25.51
15544;BMP180;7873;52.230;12.856;2022-08-18T08:04:19;100389.34;;;25.54
15544;BMP180;7873;52.230;12.856;2022-08-18T08:06:53;100385.19;;;25.52
15544;BMP180;7873;52.230;12.856;2022-08-18T08:09:28;100383.97;;;25.54
15544;BMP180;7873;52.230;12.856;2022-08-18T08:12:01;100386.47;;;25.56
15544;BMP180;7873;52.230;12.856;2022-08-18T08:14:36;100388.31;;;25.55
15544;BMP180;7873;52.230;12.856;2022-08-18T08:17:11;100377.53;;;25.55
15544;BMP180;7873;52.230;12.856;2022-08-18T08:19:53;100374.25;;;25.59
15544;BMP180;7873;52.230;12.856;2022-08-18T08:22:27;100372.97;;;25.62
15544;BMP180;7873;52.230;12.856;2022-08-18T08:25:00;100372.97;;;25.62
15544;BMP180;7873;52.230;12.856;2022-08-18T08:27:37;100376.53;;;25.62
15544;BMP180;7873;52.230;12.856;2022-08-18T08:30:11;100383.59;;;25.63
15544;BMP180;7873;52.230;12.856;2022-08-18T08:32:49;100375.50;;;25.63
15544;BMP180;7873;52.230;12.856;2022-08-18T08:35:35;100378.00;;;25.65
15544;BMP180;7873;52.230;12.856;2022-08-18T08:38:07;100384.63;;;25.62
15544;BMP180;7873;52.230;12.856;2022-08-18T08:40:48;100387.31;;;25.62
15544;BMP180;7873;52.230;12.856;2022-08-18T08:43:24;100385.25;;;25.64
15544;BMP180;7873;52.230;12.856;2022-08-18T08:45:59;100375.09;;;25.66
15544;BMP180;7873;52.230;12.856;2022-08-18T08:48:29;100374.47;;;25.64
15544;BMP180;7873;52.230;12.856;2022-08-18T08:51:00;100373.41;;;25.65
15544;BMP180;7873;52.230;12.856;2022-08-18T08:53:32;100376.13;;;25.65
15544;BMP180;7873;52.230;12.856;2022-08-18T08:56:06;100376.31;;;25.64
15544;BMP180;7873;52.230;12.856;2022-08-18T08:58:38;100375.06;;;25.60
15544;BMP180;7873;52.230;12.856;2022-08-18T09:01:25;100379.63;;;25.59
15544;BMP180;7873;52.230;12.856;2022-08-18T09:03:58;100383.59;;;25.63
15544;BMP180;7873;52.230;12.856;2022-08-18T09:06:36;100377.16;;;25.64
15544;BMP180;7873;52.230;12.856;2022-08-18T09:09:22;100363.66;;;25.64
15544;BMP180;7873;52.230;12.856;2022-08-18T09:12:03;100366.38;;;25.64
15544;BMP180;7873;52.230;12.856;2022-08-18T09:17:48;100355.38;;;25.59
15544;BMP180;7873;52.230;12.856;2022-08-18T09:20:31;100358.88;;;25.60
15544;BMP180;7873;52.230;12.856;2022-08-18T09:23:07;100357.03;;;25.60
15544;BMP180;7873;52.230;12.856;2022-08-18T09:25:44;100362.81;;;25.58
15544;BMP180;7873;52.230;12.856;2022-08-18T09:28:13;100358.88;;;25.60
15544;BMP180;7873;52.230;12.856;2022-08-18T09:30:46;100354.94;;;25.62
15544;BMP180;7873;52.230;12.856;2022-08-18T09:33:19;100354.09;;;25.62
15544;BMP180;7873;52.230;12.856;2022-08-18T09:36:08;100346.66;;;25.64
15544;BMP180;7873;52.230;12.856;2022-08-18T09:38:47;100344.34;;;25.61
15544;BMP180;7873;52.230;12.856;2022-08-18T09:41:36;100342.72;;;25.66
15544;BMP180;7873;52.230;12.856;2022-08-18T09:44:11;100344.59;;;25.66
15544;BMP180;7873;52.230;12.856;2022-08-18T09:46:52;100337.31;;;25.66
15544;BMP180;7873;52.230;12.856;2022-08-18T09:49:40;100343.75;;;25.65
15544;BMP180;7873;52.230;12.856;2022-08-18T09:55:42;100329.22;;;25.60
15544;BMP180;7873;52.230;12.856;2022-08-18T09:58:19;100326.75;;;25.58
15544;BMP180;7873;52.230;12.856;2022-08-18T10:01:17;100321.97;;;25.60
15544;BMP180;7873;52.230;12.856;2022-08-18T10:04:24;100317.41;;;25.61
15544;BMP180;7873;52.230;12.856;2022-08-18T10:06:52;100309.94;;;25.63
15544;BMP180;7873;52.230;12.856;2022-08-18T10:09:30;100310.78;;;25.63
15544;BMP180;7873;52.230;12.856;2022-08-18T10:12:11;100317.41;;;25.61
15544;BMP180;7873;52.230;12.856;2022-08-18T10:17:46;100320.94;;;25.61
15544;BMP180;7873;52.230;12.856;2022-08-18T10:20:33;100316.78;;;25.59
15544;BMP180;7873;52.230;12.856;2022-08-18T10:23:04;100321.97;;;25.60
15544;BMP180;7873;52.230;12.856;2022-08-18T10:25:36;100325.28;;;25.62
15544;BMP180;7873;52.230;12.856;2022-08-18T10:28:04;100324.88;;;25.65
15544;BMP180;7873;52.230;12.856;2022-08-18T10:31:03;100319.28;;;25.67
15544;BMP180;7873;52.230;12.856;2022-08-18T10:33:58;100313.91;;;25.67
15544;BMP180;7873;52.230;12.856;2022-08-18T10:36:37;100322.00;;;25.67
15544;BMP180;7873;52.230;12.856;2022-08-18T10:39:06;100324.88;;;25.65
15544;BMP180;7873;52.230;12.856;2022-08-18T10:41:36;100322.38;;;25.64
15544;BMP180;7873;52.230;12.856;2022-08-18T10:44:04;100311.59;;;25.64
15544;BMP180;7873;52.230;12.856;2022-08-18T10:46:33;100316.97;;;25.64
15544;BMP180;7873;52.230;12.856;2022-08-18T10:49:15;100310.59;;;25.65
15544;BMP180;7873;52.230;12.856;2022-08-18T10:52:02;100306.00;;;25.65
15544;BMP180;7873;52.230;12.856;2022-08-18T10:54:42;100308.50;;;25.67
15544;BMP180;7873;52.230;12.856;2022-08-18T10:57:18;100313.06;;;25.66
15544;BMP180;7873;52.230;12.856;2022-08-18T10:59:53;100323.66;;;25.68
15544;BMP180;7873;52.230;12.856;2022-08-18T11:02:40;100319.06;;;25.68
15544;BMP180;7873;52.230;12.856;2022-08-18T11:05:11;100322.41;;;25.70
15544;BMP180;7873;52.230;12.856;2022-08-18T11:07:46;100319.50;;;25.72
15544;BMP180;7873;52.230;12.856;2022-08-18T11:10:16;100322.63;;;25.69
15544;BMP180;7873;52.230;12.856;2022-08-18T11:12:57;100312.22;;;25.72
15544;BMP180;7873;52.230;12.856;2022-08-18T11:15:34;100315.97;;;25.71
15544;BMP180;7873;52.230;12.856;2022-08-18T11:18:15;100319.69;;;25.70
15544;BMP180;7873;52.230;12.856;2022-08-18T11:20:46;100315.97;;;25.71
15544;BMP180;7873;52.230;12.856;2022-08-18T11:23:16;100307.03;;;25.64
15544;BMP180;7873;52.230;12.856;2022-08-18T11:25:43;100319.47;;;25.65
15544;BMP180;7873;52.230;12.856;2022-08-18T11:28:15;100320.53;;;25.71
15544;BMP180;7873;52.230;12.856;2022-08-18T11:30:44;100315.34;;;25.69
15544;BMP180;7873;52.230;12.856;2022-08-18T11:33:14;100320.72;;;25.69
15544;BMP180;7873;52.230;12.856;2022-08-18T11:35:46;100317.84;;;25.71
15544;BMP180;7873;52.230;12.856;2022-08-18T11:38:16;100311.41;;;25.72
15544;BMP180;7873;52.230;12.856;2022-08-18T11:40:45;100314.31;;;25.70
15544;BMP180;7873;52.230;12.856;2022-08-18T11:43:15;100296.91;;;25.73
15544;BMP180;7873;52.230;12.856;2022-08-18T11:45:54;100299.38;;;25.74
15544;BMP180;7873;52.230;12.856;2022-08-18T11:48:32;100300.66;;;25.78
15544;BMP180;7873;52.230;12.856;2022-08-18T11:51:08;100301.06;;;25.82
15544;BMP180;7873;52.230;12.856;2022-08-18T11:53:48;100299.38;;;25.81
15544;BMP180;7873;52.230;12.856;2022-08-18T11:56:24;100302.31;;;25.86
15544;BMP180;7873;52.230;12.856;2022-08-18T11:58:53;100303.38;;;25.85
15544;BMP180;7873;52.230;12.856;2022-08-18T12:01:36;100304.84;;;25.87
15544;BMP180;7873;52.230;12.856;2022-08-18T12:04:27;100297.97;;;25.91
15544;BMP180;7873;52.230;12.856;2022-08-18T12:07:02;100296.34;;;25.97
15544;BMP180;7873;52.230;12.856;2022-08-18T12:09:38;100296.13;;;25.98
15544;BMP180;7873;52.230;12.856;2022-08-18T12:12:13;100300.72;;;26.04
15544;BMP180;7873;52.230;12.856;2022-08-18T12:14:55;100290.72;;;26.11
15544;BMP180;7873;52.230;12.856;2022-08-18T12:17:23;100285.34;;;26.11
15544;BMP180;7873;52.230;12.856;2022-08-18T12:19:50;100293.00;;;26.14
15544;BMP180;7873;52.230;12.856;2022-08-18T12:22:20;100281.19;;;26.15
15544;BMP180;7873;52.230;12.856;2022-08-18T12:24:49;100281.00;;;26.17
15544;BMP180;7873;52.230;12.856;2022-08-18T12:29:45;100300.94;;;26.22
15544;BMP180;7873;52.230;12.856;2022-08-18T12:32:12;100293.44;;;26.24
15544;BMP180;7873;52.230;12.856;2022-08-18T12:34:39;100290.53;;;26.26
15544;BMP180;7873;52.230;12.856;2022-08-18T12:37:07;100302.97;;;26.27
15544;BMP180;7873;52.230;12.856;2022-08-18T12:39:35;100299.88;;;26.23
15544;BMP180;7873;52.230;12.856;2022-08-18T12:42:04;100294.69;;;26.22
15544;BMP180;7873;52.230;12.856;2022-08-18T12:44:31;100294.50;;;26.23
15544;BMP180;7873;52.230;12.856;2022-08-18T12:46:59;100286.59;;;26.28
15544;BMP180;7873;52.230;12.856;2022-08-18T12:49:26;100285.31;;;26.31
15544;BMP180;7873;52.230;12.856;2022-08-18T12:51:53;100285.13;;;26.32
15544;BMP180;7873;52.230;12.856;2022-08-18T12:54:20;100282.22;;;26.34
15544;BMP180;7873;52.230;12.856;2022-08-18T12:56:50;100278.50;;;26.35
15544;BMP180;7873;52.230;12.856;2022-08-18T12:59:19;100277.03;;;26.39
15544;BMP180;7873;52.230;12.856;2022-08-18T13:01:46;100276.78;;;26.40
15544;BMP180;7873;52.230;12.856;2022-08-18T13:04:12;100273.69;;;26.43
15544;BMP180;7873;52.230;12.856;2022-08-18T13:06:44;100270.34;;;26.41
15544;BMP180;7873;52.230;12.856;2022-08-18T13:09:12;100271.19;;;26.42
15544;BMP180;7873;52.230;12.856;2022-08-18T13:11:38;100270.97;;;26.43
15544;BMP180;7873;52.230;12.856;2022-08-18T13:14:06;100272.44;;;26.46
15544;BMP180;7873;52.230;12.856;2022-08-18T13:16:37;100262.69;;;26.45
15544;BMP180;7873;52.230;12.856;2022-08-18T13:19:04;100269.56;;;26.47
15544;BMP180;7873;52.230;12.856;2022-08-18T13:21:31;100262.47;;;26.46
15544;BMP180;7873;52.230;12.856;2022-08-18T13:23:58;100257.91;;;26.47
15544;BMP180;7873;52.230;12.856;2022-08-18T13:26:27;100252.34;;;26.48
15544;BMP180;7873;52.230;12.856;2022-08-18T13:28:55;100261.47;;;26.47
15544;BMP180;7873;52.230;12.856;2022-08-18T13:31:22;100260.44;;;26.48
15544;BMP180;7873;52.230;12.856;2022-08-18T13:33:51;100264.56;;;26.51
15544;BMP180;7873;52.230;12.856;2022-08-18T13:36:18;100261.88;;;26.51
15544;BMP180;7873;52.230;12.856;2022-08-18T13:38:45;100254.59;;;26.51
15544;BMP180;7873;52.230;12.856;2022-08-18T13:41:12;100262.47;;;26.53
15544;BMP180;7873;52.230;12.856;2022-08-18T13:43:41;100255.41;;;26.52
15544;BMP180;7873;52.230;12.856;2022-08-18T13:46:10;100260.19;;;26.50
15544;BMP180;7873;52.230;12.856;2022-08-18T13:48:37;100263.53;;;26.52
15544;BMP180;7873;52.230;12.856;2022-08-18T13:51:08;100248.34;;;26.51
15544;BMP180;7873;52.230;12.856;2022-08-18T13:53:37;100241.72;;;26.53
15544;BMP180;7873;52.230;12.856;2022-08-18T13:56:05;100241.50;;;26.55
15544;BMP180;7873;52.230;12.856;2022-08-18T13:58:34;100235.03;;;26.56
15544;BMP180;7873;52.230;12.856;2022-08-18T14:01:03;100236.50;;;26.58
15544;BMP180;7873;52.230;12.856;2022-08-18T14:03:31;100234.84;;;26.57
15544;BMP180;7873;52.230;12.856;2022-08-18T14:05:59;100236.31;;;26.60
15544;BMP180;7873;52.230;12.856;2022-08-18T14:08:28;100240.88;;;26.59
15544;BMP180;7873;52.230;12.856;2022-08-18T14:10:57;100245.84;;;26.62
15544;BMP180;7873;52.230;12.856;2022-08-18T14:13:25;100235.03;;;26.62
15544;BMP180;7873;52.230;12.856;2022-08-18T14:15:54;100237.97;;;26.61
15544;BMP180;7873;52.230;12.856;2022-08-18T14:18:21;100242.09;;;26.63
15544;BMP180;7873;52.230;12.856;2022-08-18T14:20:48;100236.94;;;26.62
15544;BMP180;7873;52.230;12.856;2022-08-18T14:23:34;100225.50;;;26.60
15544;BMP180;7873;52.230;12.856;2022-08-18T14:26:18;100227.53;;;26.64
15544;BMP180;7873;52.230;12.856;2022-08-18T14:29:02;100227.34;;;26.66
15544;BMP180;7873;52.230;12.856;2022-08-18T14:31:30;100223.81;;;26.65
15544;BMP180;7873;52.230;12.856;2022-08-18T14:33:57;100220.66;;;26.68
15544;BMP180;7873;52.230;12.856;2022-08-18T14:36:24;100228.38;;;26.71